Time;durP1;ratioP1;P1;durP2;ratioP2;P2;SDS_P1;SDS_P2;PMS_P1;PMS_P2;Temp;Humidity;BMP_temperature;BMP_pressure;BME280_temperature;BME280_humidity;BME280_pressure;Samples;Min_cycle;Max_cycle;Signal;HPM_P1;HPM_P2
2021/12/21 00:00:30;;;;;;;3.87;3.58;;;;;;;0.27;69.43;99696.66;461391;114;922857;-73
2021/12/21 00:01:33;;;;;;;4.03;3.65;;;;;;;0.27;69.42;99688.63;461288;114;923206;-73
2021/12/21 00:02:37;;;;;;;4.28;3.91;;;;;;;0.27;69.31;99695.83;461511;113;923173;-72
2021/12/21 00:03:40;;;;;;;4.41;4.01;;;;;;;0.26;69.30;99694.98;460492;113;922592;-72
2021/12/21 00:04:43;;;;;;;3.37;3.08;;;;;;;0.25;69.24;99695.98;460986;114;922759;-73
2021/12/21 00:05:47;;;;;;;2.87;2.67;;;;;;;0.23;69.18;99695.31;460339;114;930906;-73
2021/12/21 00:06:50;;;;;;;3.34;3.04;;;;;;;0.22;69.21;99704.35;460834;114;930401;-74
2021/12/21 00:07:55;;;;;;;3.15;2.83;;;;;;;0.20;69.19;99703.70;460737;113;922552;-73
2021/12/21 00:08:58;;;;;;;2.77;2.57;;;;;;;0.18;69.12;99704.87;460818;114;922623;-73
2021/12/21 00:10:03;;;;;;;3.18;2.67;;;;;;;0.16;69.15;99705.06;460391;114;923178;-73
2021/12/21 00:11:06;;;;;;;2.71;2.19;;;;;;;0.15;69.32;99708.73;461277;114;922688;-74
2021/12/21 00:12:13;;;;;;;2.70;2.32;;;;;;;0.16;69.32;99704.22;462405;112;922583;-73
2021/12/21 00:15:21;;;;;;;3.28;2.47;;;;;;;0.18;69.39;99704.87;461856;114;923134;-74
2021/12/21 00:18:24;;;;;;;2.91;2.39;;;;;;;0.20;69.17;99711.75;461122;114;922726;-74
2021/12/21 00:19:41;;;;;;;2.86;2.33;;;;;;;0.20;69.09;99716.27;460016;113;922919;-74
2021/12/21 00:20:44;;;;;;;3.13;2.61;;;;;;;0.17;69.01;99716.59;457668;113;922916;-73
2021/12/21 00:21:41;;;;;;;2.48;2.27;;;;;;;0.16;68.98;99712.27;457231;114;922622;-74
2021/12/21 00:24:00;;;;;;;2.44;2.22;;;;;;;0.11;68.93;99712.74;460860;113;922613;-74
2021/12/21 00:25:01;;;;;;;2.32;2.00;;;;;;;0.10;68.91;99718.30;461268;113;922593;-73
2021/12/21 00:26:15;;;;;;;2.21;1.99;;;;;;;0.08;68.90;99712.25;460600;114;922572;-74
2021/12/21 00:27:19;;;;;;;2.43;2.17;;;;;;;0.07;68.94;99714.09;461263;114;923528;-73
2021/12/21 00:28:24;;;;;;;2.43;2.21;;;;;;;0.08;68.96;99715.77;459904;113;923024;-73
2021/12/21 00:29:27;;;;;;;2.48;2.22;;;;;;;0.08;68.88;99715.77;461638;113;922747;-73
2021/12/21 00:30:31;;;;;;;2.54;2.29;;;;;;;0.05;68.81;99716.12;460885;114;922714;-72
2021/12/21 00:31:36;;;;;;;4.32;2.10;;;;;;;0.02;68.81;99711.09;460966;114;923321;-72
2021/12/21 00:32:39;;;;;;;2.53;2.33;;;;;;;0.00;68.79;99713.92;459827;114;922485;-72
2021/12/21 00:33:45;;;;;;;2.28;2.08;;;;;;;0.00;68.81;99721.16;461538;113;923448;-72
2021/12/21 00:34:48;;;;;;;2.27;1.89;;;;;;;0.00;68.88;99727.33;461950;113;923360;-72
2021/12/21 00:35:51;;;;;;;2.60;2.26;;;;;;;-0.01;68.90;99728.36;450443;116;922755;-72
2021/12/21 00:36:55;;;;;;;2.62;2.34;;;;;;;-0.01;68.89;99728.36;451308;114;923090;-72
2021/12/21 00:37:58;;;;;;;3.42;2.38;;;;;;;-0.02;68.92;99728.52;460933;114;930397;-72
2021/12/21 00:39:06;;;;;;;2.20;2.06;;;;;;;-0.01;69.00;99724.84;461899;114;922753;-72
2021/12/21 00:40:11;;;;;;;2.99;2.06;;;;;;;0.01;69.03;99722.80;461984;114;930524;-73
2021/12/21 00:41:14;;;;;;;3.17;2.87;;;;;;;0.04;69.07;99733.20;460838;113;922745;-72
2021/12/21 00:42:18;;;;;;;3.02;2.58;;;;;;;0.05;69.11;99726.01;460813;113;922855;-72
2021/12/21 00:43:22;;;;;;;3.19;2.79;;;;;;;0.08;69.12;99734.53;462393;113;923267;-72
2021/12/21 00:44:25;;;;;;;2.86;2.62;;;;;;;0.11;69.06;99733.38;461616;114;923071;-72
2021/12/21 00:45:28;;;;;;;3.24;2.93;;;;;;;0.14;68.96;99735.70;461857;114;922588;-72
2021/12/21 00:46:31;;;;;;;3.80;3.29;;;;;;;0.15;68.90;99732.86;460838;114;922608;-72
2021/12/21 00:47:39;;;;;;;4.14;3.74;;;;;;;0.17;68.83;99733.52;460915;113;922766;-72
2021/12/21 00:48:48;;;;;;;4.33;3.92;;;;;;;0.18;68.76;99734.35;461101;114;922638;-73
2021/12/21 00:49:47;;;;;;;4.57;4.10;;;;;;;0.18;68.63;99731.67;460439;114;922623;-73
2021/12/21 00:50:50;;;;;;;7.24;6.16;;;;;;;0.16;68.57;99729.19;460540;113;922610;-73
2021/12/21 00:51:53;;;;;;;5.84;5.29;;;;;;;0.15;68.53;99738.23;460278;114;922896;-73
2021/12/21 00:52:57;;;;;;;6.56;5.81;;;;;;;0.15;68.60;99735.55;461754;113;922703;-73
2021/12/21 00:54:00;;;;;;;6.86;6.07;;;;;;;0.15;68.64;99737.38;461051;114;923164;-73
2021/12/21 00:55:03;;;;;;;8.43;6.51;;;;;;;0.14;68.68;99731.19;460895;113;923071;-73
2021/12/21 00:56:08;;;;;;;7.55;6.55;;;;;;;0.15;68.68;99740.06;460857;114;923604;-73
2021/12/21 00:57:11;;;;;;;7.93;6.13;;;;;;;0.14;68.72;99738.38;461514;114;923322;-73
2021/12/21 00:58:15;;;;;;;7.34;6.52;;;;;;;0.14;68.79;99741.91;461498;114;930504;-73
2021/12/21 00:59:18;;;;;;;8.11;6.28;;;;;;;0.13;68.78;99740.23;460669;114;922715;-73
2021/12/21 01:00:23;;;;;;;7.67;6.22;;;;;;;0.12;68.62;99741.23;460328;113;922629;-73
2021/12/21 01:01:26;;;;;;;7.42;6.58;;;;;;;0.11;68.61;99736.86;460416;114;930721;-73
2021/12/21 01:02:30;;;;;;;7.82;7.02;;;;;;;0.09;68.61;99738.89;461666;114;923161;-71
2021/12/21 01:03:37;;;;;;;8.27;6.70;;;;;;;0.07;68.59;99742.73;460700;113;922896;-74
2021/12/21 01:04:45;;;;;;;8.06;7.11;;;;;;;0.06;68.66;99741.05;460710;114;922686;-72
2021/12/21 01:07:03;;;;;;;9.29;7.36;;;;;;;0.04;68.68;99735.05;461522;114;922919;-73
2021/12/21 01:08:04;;;;;;;9.01;7.64;;;;;;;0.02;68.66;99734.36;460431;113;922588;-74
2021/12/21 01:09:40;;;;;;;8.75;7.85;;;;;;;-0.02;68.65;99732.03;462677;113;922627;-72
2021/12/21 01:11:33;;;;;;;8.22;7.37;;;;;;;-0.07;68.67;99730.86;459521;113;922665;-72
2021/12/21 01:12:48;;;;;;;9.52;8.59;;;;;;;-0.12;68.66;99739.41;461080;114;922537;-72
2021/12/21 01:13:59;;;;;;;9.58;8.68;;;;;;;-0.14;68.71;99733.37;459880;114;922526;-72
2021/12/21 01:15:20;;;;;;;;;;;;;;;-0.17;68.76;99739.08;464185;114;922175;-73
2021/12/21 01:17:27;;;;;;;8.78;7.92;;;;;;;-0.25;68.88;99744.41;461312;114;922752;-73
2021/12/21 01:18:33;;;;;;;7.71;6.99;;;;;;;-0.27;68.99;99748.25;460039;114;922552;-74
2021/12/21 01:19:44;;;;;;;8.64;7.73;;;;;;;-0.31;69.03;99749.59;460605;114;922650;-74
2021/12/21 01:21:02;;;;;;;8.19;7.37;;;;;;;-0.34;69.09;99742.73;460309;113;922675;-73
2021/12/21 01:22:07;;;;;;;8.59;7.13;;;;;;;-0.39;69.11;99747.75;459142;114;922519;-75
2021/12/21 01:28:28;;;;;;;9.09;8.23;;;;;;;-0.50;69.47;99751.55;459801;114;922934;-72
2021/12/21 01:29:33;;;;;;;8.38;7.63;;;;;;;-0.49;69.51;99744.36;458052;113;922657;-72
2021/12/21 01:35:04;;;;;;;7.26;6.62;;;;;;;-0.58;69.27;99750.72;460171;113;922655;-72
2021/12/21 01:36:04;;;;;;;6.83;6.23;;;;;;;-0.60;69.33;99747.34;446188;118;922515;-73
2021/12/21 01:39:54;;;;;;;7.07;6.46;;;;;;;-0.65;69.29;99752.36;460844;113;922987;-72
2021/12/21 01:40:55;;;;;;;6.95;6.32;;;;;;;-0.68;69.35;99758.89;458288;114;922862;-73
2021/12/21 01:42:05;;;;;;;7.64;6.96;;;;;;;-0.69;69.47;99764.41;460548;114;922532;-72
2021/12/21 01:43:55;;;;;;;7.58;6.57;;;;;;;-0.69;69.49;99759.89;460147;113;922517;-73
2021/12/21 01:44:45;;;;;;;6.96;6.28;;;;;;;-0.69;69.54;99767.92;436868;114;922952;-73
2021/12/21 01:50:40;;;;;;;7.76;7.06;;;;;;;-0.69;69.86;99781.30;461208;114;922584;-73
2021/12/21 01:51:44;;;;;;;6.88;6.28;;;;;;;-0.68;69.76;99779.47;461470;114;922829;-72
2021/12/21 01:52:47;;;;;;;8.06;7.08;;;;;;;-0.67;69.76;99773.96;459889;114;930567;-73
2021/12/21 01:53:52;;;;;;;6.80;6.20;;;;;;;-0.65;69.71;99782.64;461054;114;930566;-73
2021/12/21 01:54:55;;;;;;;7.58;6.90;;;;;;;-0.63;69.80;99777.14;459884;114;922702;-72
2021/12/21 01:55:58;;;;;;;7.48;6.86;;;;;;;-0.60;69.85;99774.96;460141;113;922542;-72
2021/12/21 01:57:03;;;;;;;7.81;7.09;;;;;;;-0.58;69.85;99781.00;459941;113;930396;-73
2021/12/21 01:58:07;;;;;;;8.43;7.68;;;;;;;-0.56;69.74;99779.02;461458;114;922637;-73
2021/12/21 01:59:10;;;;;;;10.58;9.66;;;;;;;-0.55;69.61;99777.18;461332;114;922522;-72
2021/12/21 02:00:15;;;;;;;8.54;7.84;;;;;;;-0.56;69.47;99780.85;461323;113;922577;-72
2021/12/21 02:01:22;;;;;;;7.42;6.82;;;;;;;-0.56;69.32;99786.20;462492;114;930580;-73
2021/12/21 02:02:25;;;;;;;7.92;7.06;;;;;;;-0.56;69.30;99783.53;460865;114;922559;-72
2021/12/21 02:03:29;;;;;;;8.95;7.41;;;;;;;-0.58;69.29;99789.03;462260;114;923294;-72
2021/12/21 02:04:33;;;;;;;7.96;7.26;;;;;;;-0.60;69.23;99783.00;461272;113;922746;-72
2021/12/21 02:05:37;;;;;;;7.53;6.84;;;;;;;-0.63;69.19;99783.34;460966;113;922622;-71
2021/12/21 02:06:40;;;;;;;7.94;6.88;;;;;;;-0.63;69.17;99779.81;462039;114;922950;-72
2021/12/21 02:07:44;;;;;;;9.86;8.93;;;;;;;-0.66;69.11;99785.51;461646;114;930572;-71
2021/12/21 02:08:47;;;;;;;9.61;8.54;;;;;;;-0.69;69.17;99781.30;461000;113;922594;-72
2021/12/21 02:09:51;;;;;;;9.93;9.02;;;;;;;-0.70;69.15;99787.66;460750;114;923087;-72
2021/12/21 02:10:59;;;;;;;10.23;9.33;;;;;;;-0.70;69.18;99790.33;461034;114;922612;-72
2021/12/21 02:12:00;;;;;;;11.64;10.58;;;;;;;-0.70;69.15;99789.48;460793;114;923270;-71
2021/12/21 02:13:03;;;;;;;14.52;13.11;;;;;;;-0.71;69.07;99788.65;460477;113;923101;-72
2021/12/21 02:14:09;;;;;;;16.16;14.55;;;;;;;-0.71;69.11;99787.80;461329;113;930615;-72
2021/12/21 02:15:12;;;;;;;20.62;18.64;;;;;;;-0.72;69.16;99787.00;460833;114;923167;-73
2021/12/21 02:16:26;;;;;;;20.68;18.74;;;;;;;-0.72;69.19;99786.16;460341;114;922569;-73
2021/12/21 02:18:55;;;;;;;17.88;16.08;;;;;;;-0.71;69.28;99793.16;460272;114;922568;-72
2021/12/21 02:20:05;;;;;;;15.33;13.78;;;;;;;-0.70;69.27;99793.01;460355;113;922564;-72
2021/12/21 02:21:22;;;;;;;12.86;11.75;;;;;;;-0.70;69.18;99802.87;458897;114;922525;-72
2021/12/21 02:22:24;;;;;;;11.32;10.29;;;;;;;-0.71;69.17;99804.70;459976;114;922804;-72
2021/12/21 02:23:35;;;;;;;12.17;10.97;;;;;;;-0.71;69.16;99807.38;461082;113;922735;-73
2021/12/21 02:24:51;;;;;;;11.79;10.71;;;;;;;-0.70;69.16;99813.58;461240;114;922771;-72
2021/12/21 02:26:08;;;;;;;12.24;11.08;;;;;;;-0.70;69.16;99819.77;459710;114;922635;-72
2021/12/21 02:27:18;;;;;;;11.40;10.33;;;;;;;-0.68;69.24;99823.14;458200;113;922650;-72
2021/12/21 02:29:28;;;;;;;8.96;8.07;;;;;;;-0.64;69.22;99807.58;461241;114;922623;-72
2021/12/21 02:30:30;;;;;;;10.61;9.53;;;;;;;-0.63;69.18;99811.94;461298;114;922621;-72
2021/12/21 02:31:34;;;;;;;10.31;9.24;;;;;;;-0.62;69.18;99811.78;459727;114;922480;-72
2021/12/21 02:32:38;;;;;;;10.23;9.24;;;;;;;-0.61;69.12;99813.47;461222;114;922725;-74
2021/12/21 02:33:41;;;;;;;9.59;8.67;;;;;;;-0.60;69.11;99819.63;445711;118;922704;-72
2021/12/21 02:34:45;;;;;;;10.33;9.33;;;;;;;-0.57;69.28;99819.33;460646;113;922578;-72
2021/12/21 02:35:49;;;;;;;10.74;9.74;;;;;;;-0.56;69.21;99816.50;462088;114;923263;-73
2021/12/21 02:36:56;;;;;;;11.09;9.96;;;;;;;-0.53;69.12;99818.00;460533;114;930630;-73
2021/12/21 02:37:59;;;;;;;14.60;10.76;;;;;;;-0.54;69.00;99822.51;461501;114;922670;-72
2021/12/21 02:39:04;;;;;;;11.61;10.46;;;;;;;-0.53;68.89;99815.31;461485;114;922928;-72
2021/12/21 02:40:09;;;;;;;11.03;9.77;;;;;;;-0.53;68.84;99818.83;460362;113;922625;-71
2021/12/21 02:41:14;;;;;;;11.34;10.26;;;;;;;-0.54;68.72;99816.31;461094;113;922938;-72
2021/12/21 02:42:17;;;;;;;11.48;10.35;;;;;;;-0.55;68.64;99818.15;461114;113;922782;-72
2021/12/21 02:43:20;;;;;;;9.87;8.93;;;;;;;-0.56;68.63;99816.50;460867;114;923083;-73
2021/12/21 02:44:24;;;;;;;10.61;9.54;;;;;;;-0.56;68.56;99818.33;461170;113;922575;-73
2021/12/21 02:45:27;;;;;;;10.04;9.00;;;;;;;-0.58;68.50;99813.13;460747;113;930788;-74
2021/12/21 02:46:31;;;;;;;9.93;9.01;;;;;;;-0.59;68.48;99813.28;460778;114;922922;-72
2021/12/21 02:47:34;;;;;;;9.31;8.49;;;;;;;-0.59;68.54;99823.99;461511;114;930468;-73
2021/12/21 02:48:37;;;;;;;9.22;8.32;;;;;;;-0.59;68.55;99819.48;460668;114;923051;-72
2021/12/21 02:49:41;;;;;;;9.34;8.44;;;;;;;-0.59;68.55;99826.67;461057;113;922648;-72
2021/12/21 02:50:44;;;;;;;9.94;8.52;;;;;;;-0.57;68.60;99833.55;462575;114;930776;-72
2021/12/21 02:51:48;;;;;;;10.29;8.37;;;;;;;-0.55;68.52;99830.73;461709;114;922773;-72
2021/12/21 02:52:51;;;;;;;8.96;8.15;;;;;;;-0.55;68.43;99831.53;461536;114;922641;-72
2021/12/21 02:53:54;;;;;;;9.34;8.39;;;;;;;-0.55;68.40;99830.73;462103;114;922567;-73
2021/12/21 02:54:58;;;;;;;9.89;8.94;;;;;;;-0.56;68.41;99837.91;461079;113;922706;-72
2021/12/21 02:56:01;;;;;;;11.32;9.19;;;;;;;-0.56;68.41;99837.91;461842;114;922619;-73
2021/12/21 02:57:05;;;;;;;12.31;11.06;;;;;;;-0.53;68.48;99844.77;461122;114;930591;-72
2021/12/21 02:58:08;;;;;;;12.55;10.48;;;;;;;-0.52;68.52;99847.30;452290;114;930679;-72
2021/12/21 02:59:12;;;;;;;13.84;10.14;;;;;;;-0.50;68.43;99853.30;460574;113;922667;-71
2021/12/21 03:00:15;;;;;;;9.51;8.66;;;;;;;-0.50;68.36;99855.98;460965;113;922650;-72
2021/12/21 03:01:19;;;;;;;10.98;10.01;;;;;;;-0.49;68.27;99851.47;460990;114;930548;-72
2021/12/21 03:02:23;;;;;;;12.38;11.20;;;;;;;-0.50;68.24;99853.30;451770;114;929068;-71
2021/12/21 03:03:27;;;;;;;12.59;11.38;;;;;;;-0.49;68.29;99856.83;461508;113;923464;-72
2021/12/21 03:04:30;;;;;;;13.51;12.14;;;;;;;-0.45;68.38;99855.52;451186;114;930298;-72
2021/12/21 03:05:35;;;;;;;16.89;15.16;;;;;;;-0.43;68.36;99857.02;460263;114;922857;-73
2021/12/21 03:08:14;;;;;;;14.36;12.93;;;;;;;-0.40;68.20;99863.06;462104;114;922667;-72
2021/12/21 03:09:36;;;;;;;11.76;10.62;;;;;;;-0.39;68.24;99868.27;458505;114;922633;-72
2021/12/21 03:10:24;;;;;;;9.07;8.12;;;;;;;-0.37;68.16;99868.08;457590;114;922952;-72
2021/12/21 03:11:47;;;;;;;11.45;9.28;;;;;;;-0.36;68.11;99867.93;460503;113;922986;-72
2021/12/21 03:14:08;;;;;;;9.35;8.44;;;;;;;-0.35;68.10;99869.61;461081;114;923079;-74
2021/12/21 03:15:11;;;;;;;9.02;8.03;;;;;;;-0.31;68.08;99864.76;460936;113;922592;-71
2021/12/21 03:16:16;;;;;;;7.81;7.11;;;;;;;-0.31;68.10;99865.59;460458;113;922514;-72
2021/12/21 03:17:20;;;;;;;7.99;6.55;;;;;;;-0.31;68.03;99878.99;461476;113;922541;-73
2021/12/21 03:18:23;;;;;;;7.89;7.15;;;;;;;-0.30;68.03;99858.41;460887;114;922674;-73
2021/12/21 03:19:27;;;;;;;8.34;7.54;;;;;;;-0.30;67.93;99871.80;461250;113;922814;-72
2021/12/21 03:20:32;;;;;;;7.77;7.07;;;;;;;-0.29;67.93;99870.80;461722;114;922836;-72
2021/12/21 03:21:36;;;;;;;7.58;6.92;;;;;;;-0.29;67.85;99868.12;460806;114;930533;-72
2021/12/21 03:22:40;;;;;;;8.48;7.68;;;;;;;-0.30;67.79;99866.44;460640;114;922667;-72
2021/12/21 03:23:43;;;;;;;7.52;6.74;;;;;;;-0.30;67.75;99879.84;460263;114;922942;-72
2021/12/21 03:24:46;;;;;;;8.14;7.36;;;;;;;-0.30;67.76;99882.52;460378;113;930551;-72
2021/12/21 03:25:49;;;;;;;7.48;6.76;;;;;;;-0.32;67.72;99879.98;460817;113;922639;-72
2021/12/21 03:26:53;;;;;;;7.48;6.57;;;;;;;-0.32;67.74;99879.98;462264;114;922981;-73
2021/12/21 03:27:56;;;;;;;6.85;6.26;;;;;;;-0.32;67.78;99874.62;461232;114;922913;-72
2021/12/21 03:29:00;;;;;;;9.56;7.96;;;;;;;-0.32;67.77;99887.18;461351;114;922687;-72
2021/12/21 03:30:06;;;;;;;10.62;9.26;;;;;;;-0.33;67.84;99878.30;460822;114;922940;-72
2021/12/21 03:31:10;;;;;;;11.18;10.08;;;;;;;-0.34;67.87;99881.17;451680;116;922641;-72
2021/12/21 03:32:13;;;;;;;11.53;10.39;;;;;;;-0.32;67.93;99889.86;443235;114;923305;-73
2021/12/21 03:33:17;;;;;;;13.61;10.54;;;;;;;-0.32;67.95;99877.31;461636;113;922618;-73
2021/12/21 03:34:20;;;;;;;11.37;10.23;;;;;;;-0.30;68.03;99888.71;461403;113;930441;-73
2021/12/21 03:35:23;;;;;;;11.79;10.34;;;;;;;-0.24;68.17;99892.58;462355;114;922638;-72
2021/12/21 03:36:27;;;;;;;12.21;10.50;;;;;;;-0.20;68.17;99888.56;461973;114;922623;-73
2021/12/21 03:37:31;;;;;;;11.61;10.27;;;;;;;-0.14;68.20;99885.23;460324;114;930410;-72
2021/12/21 03:38:36;;;;;;;17.58;11.04;;;;;;;-0.08;68.15;99884.59;460621;113;930516;-72
2021/12/21 03:39:45;;;;;;;14.68;10.82;;;;;;;-0.05;68.06;99882.41;460716;114;923000;-72
2021/12/21 03:40:48;;;;;;;13.41;10.81;;;;;;;-0.02;67.98;99882.09;460525;114;930370;-72
2021/12/21 03:41:57;;;;;;;11.23;10.15;;;;;;;0.03;68.01;99881.60;453024;114;922671;-72
2021/12/21 03:43:01;;;;;;;11.52;10.37;;;;;;;0.06;67.93;99878.58;460196;114;922889;-73
2021/12/21 03:44:07;;;;;;;11.96;10.59;;;;;;;0.09;67.79;99878.27;460955;114;922578;-72
2021/12/21 03:45:10;;;;;;;11.67;10.44;;;;;;;0.12;67.83;99883.28;461402;114;923114;-71
2021/12/21 03:46:15;;;;;;;13.52;10.82;;;;;;;0.15;67.90;99876.77;459847;113;922706;-72
2021/12/21 03:47:22;;;;;;;10.86;9.84;;;;;;;0.21;68.07;99878.78;461474;114;922998;-72
2021/12/21 03:48:24;;;;;;;10.48;9.52;;;;;;;0.26;68.16;99874.61;461292;114;922603;-73
2021/12/21 03:50:38;;;;;;;;;;;;;;;0.39;68.02;99880.30;464697;113;930194;-73
2021/12/21 03:51:42;;;;;;;9.62;8.68;;;;;;;0.43;67.80;99883.50;461439;113;922231;-73
2021/12/21 03:52:45;;;;;;;21.57;12.46;;;;;;;0.45;67.49;99880.63;459903;114;923291;-72
2021/12/21 03:53:50;;;;;;;11.94;10.78;;;;;;;0.43;67.21;99879.98;461895;114;922615;-73
2021/12/21 03:54:56;;;;;;;11.57;10.46;;;;;;;0.37;66.99;99893.05;451200;116;922689;-73
2021/12/21 03:57:22;;;;;;;9.37;8.54;;;;;;;0.22;66.85;99894.69;459664;114;922821;-73
2021/12/21 03:58:25;;;;;;;9.38;8.57;;;;;;;0.16;66.94;99897.21;460910;114;922602;-72
2021/12/21 03:59:30;;;;;;;9.80;8.58;;;;;;;0.14;67.08;99902.73;461036;113;930624;-72
2021/12/21 04:00:33;;;;;;;9.15;8.35;;;;;;;0.16;67.25;99894.53;460688;113;930671;-72
2021/12/21 04:01:36;;;;;;;9.77;8.68;;;;;;;0.19;67.30;99895.03;461125;114;922927;-71
2021/12/21 04:02:40;;;;;;;9.93;7.97;;;;;;;0.24;67.21;99902.57;461679;114;922601;-72
2021/12/21 04:03:44;;;;;;;10.46;9.24;;;;;;;0.25;67.03;99902.41;460229;113;931169;-72
2021/12/21 04:04:48;;;;;;;8.89;8.00;;;;;;;0.24;66.72;99898.05;461241;113;922705;-72
2021/12/21 04:05:52;;;;;;;9.25;8.26;;;;;;;0.20;66.59;99899.39;460129;113;922606;-72
2021/12/21 04:06:55;;;;;;;10.78;9.46;;;;;;;0.17;66.50;99901.55;460594;113;930706;-72
2021/12/21 04:07:59;;;;;;;10.44;9.03;;;;;;;0.12;66.48;99907.41;460682;114;922950;-72
2021/12/21 04:09:05;;;;;;;7.06;6.33;;;;;;;0.07;66.42;99908.90;460971;113;922997;-72
2021/12/21 04:10:10;;;;;;;7.69;7.04;;;;;;;0.00;66.28;99903.38;460178;114;922562;-72
2021/12/21 04:11:14;;;;;;;8.18;7.38;;;;;;;-0.04;66.43;99910.05;461394;114;923532;-72
2021/12/21 04:12:17;;;;;;;8.45;6.98;;;;;;;-0.06;66.49;99909.39;461587;114;922895;-71
2021/12/21 04:13:21;;;;;;;11.89;7.64;;;;;;;-0.08;66.49;99914.06;461723;113;922652;-71
2021/12/21 04:14:24;;;;;;;9.79;7.35;;;;;;;-0.11;66.41;99914.41;461192;114;922557;-71
2021/12/21 04:15:31;;;;;;;8.82;7.19;;;;;;;-0.16;66.40;99922.90;461401;114;922996;-72
2021/12/21 04:16:35;;;;;;;9.22;6.90;;;;;;;-0.17;66.62;99920.41;460012;114;930662;-73
2021/12/21 04:17:39;;;;;;;8.43;7.11;;;;;;;-0.18;66.69;99929.44;461228;113;922714;-72
2021/12/21 04:18:42;;;;;;;9.91;8.10;;;;;;;-0.19;66.75;99930.44;461474;114;930579;-73
2021/12/21 04:19:45;;;;;;;10.31;9.28;;;;;;;-0.20;66.75;99926.08;461338;114;922640;-72
2021/12/21 04:20:50;;;;;;;9.69;8.81;;;;;;;-0.21;66.76;99929.75;461029;114;922688;-73
2021/12/21 04:21:53;;;;;;;11.49;10.29;;;;;;;-0.23;66.71;99937.12;461149;114;923311;-72
2021/12/21 04:22:57;;;;;;;9.94;8.96;;;;;;;-0.26;66.79;99932.07;461062;114;922889;-73
2021/12/21 04:24:01;;;;;;;8.06;7.25;;;;;;;-0.25;66.87;99939.11;461920;114;927486;-71
2021/12/21 04:25:05;;;;;;;10.96;8.02;;;;;;;-0.24;66.86;99941.64;460092;114;930510;-70
2021/12/21 04:26:11;;;;;;;10.62;8.51;;;;;;;-0.22;66.87;99946.84;460164;113;930699;-73
2021/12/21 04:27:16;;;;;;;9.91;8.78;;;;;;;-0.22;66.73;99944.98;460565;113;922831;-72
2021/12/21 04:28:19;;;;;;;10.01;9.04;;;;;;;-0.22;66.71;99947.66;461970;114;922919;-72
2021/12/21 04:29:23;;;;;;;10.72;9.66;;;;;;;-0.24;66.64;99944.32;461934;114;923079;-73
2021/12/21 04:30:27;;;;;;;10.63;9.67;;;;;;;-0.26;66.68;99948.14;461012;113;922751;-73
2021/12/21 04:31:30;;;;;;;9.94;8.96;;;;;;;-0.27;66.60;99955.34;461593;113;923745;-72
2021/12/21 04:32:33;;;;;;;9.22;8.41;;;;;;;-0.28;66.54;99951.01;462135;114;922723;-72
2021/12/21 04:33:39;;;;;;;9.04;8.26;;;;;;;-0.30;66.48;99953.00;461488;114;922615;-73
2021/12/21 04:34:43;;;;;;;10.16;8.63;;;;;;;-0.29;66.61;99954.68;461733;113;931073;-73
2021/12/21 04:35:46;;;;;;;9.12;8.04;;;;;;;-0.27;66.60;99954.50;461444;113;922585;-72
2021/12/21 04:36:50;;;;;;;8.61;7.89;;;;;;;-0.26;66.68;99961.54;462231;114;922652;-73
2021/12/21 04:38:02;;;;;;;8.63;7.83;;;;;;;-0.25;66.98;99957.87;460962;114;930608;-73
2021/12/21 04:39:05;;;;;;;11.45;10.38;;;;;;;-0.22;67.20;99960.23;460330;113;922897;-74
2021/12/21 04:40:15;;;;;;;10.20;9.27;;;;;;;-0.18;67.21;99957.07;461746;113;922815;-71
2021/12/21 04:41:22;;;;;;;9.93;9.07;;;;;;;-0.14;67.19;99963.78;460789;114;922599;-72
2021/12/21 04:42:21;;;;;;;8.62;7.84;;;;;;;-0.09;67.12;99972.17;460881;114;923125;-72
2021/12/21 04:43:25;;;;;;;8.04;7.38;;;;;;;-0.06;66.85;99966.50;460374;113;922657;-73
2021/12/21 04:44:28;;;;;;;8.75;7.96;;;;;;;-0.04;66.53;99964.48;458801;113;922838;-73
2021/12/21 04:45:32;;;;;;;9.31;8.49;;;;;;;-0.01;66.37;99974.05;460676;114;923448;-73
2021/12/21 04:46:35;;;;;;;10.35;9.55;;;;;;;0.00;66.31;99965.02;460846;114;923282;-73
2021/12/21 04:47:38;;;;;;;10.14;9.24;;;;;;;0.03;66.20;99972.72;459498;113;930826;-73
2021/12/21 04:48:41;;;;;;;11.65;10.56;;;;;;;0.05;66.16;99972.56;461577;114;930523;-72
2021/12/21 04:49:45;;;;;;;11.56;10.39;;;;;;;0.05;66.14;99973.41;460522;113;922608;-72
2021/12/21 04:50:48;;;;;;;9.14;8.34;;;;;;;0.05;66.07;99973.41;453360;114;922908;-74
2021/12/21 04:51:52;;;;;;;9.24;8.40;;;;;;;0.06;66.02;99979.58;460203;114;922920;-74
2021/12/21 04:52:55;;;;;;;8.84;8.12;;;;;;;0.03;65.91;99975.40;460712;114;922811;-72
2021/12/21 04:53:58;;;;;;;9.29;8.49;;;;;;;0.03;65.91;99975.40;461631;114;930445;-72
2021/12/21 04:55:03;;;;;;;8.92;8.01;;;;;;;0.00;65.85;99971.19;460394;114;922685;-72
2021/12/21 04:56:07;;;;;;;7.88;7.18;;;;;;;-0.04;65.96;99971.67;461491;113;922617;-73
2021/12/21 04:57:10;;;;;;;7.92;7.33;;;;;;;-0.06;66.08;99971.86;461278;114;923136;-73
2021/12/21 04:58:13;;;;;;;7.99;7.31;;;;;;;-0.06;66.17;99971.02;461224;114;922795;-74
2021/12/21 04:59:17;;;;;;;7.40;6.82;;;;;;;-0.06;66.35;99971.02;461890;114;922985;-74
2021/12/21 05:00:22;;;;;;;7.58;6.77;;;;;;;-0.07;66.15;99964.82;460432;114;927543;-72
2021/12/21 05:01:26;;;;;;;7.06;6.52;;;;;;;-0.10;66.26;99967.80;460276;114;922653;-71
2021/12/21 05:02:29;;;;;;;6.88;6.29;;;;;;;-0.10;66.58;99967.80;460724;114;922628;-73
2021/12/21 05:03:33;;;;;;;8.41;7.64;;;;;;;-0.11;66.66;99974.16;460749;114;922723;-72
2021/12/21 05:04:38;;;;;;;7.08;6.45;;;;;;;-0.13;66.47;99976.18;459958;113;923287;-75
2021/12/21 05:05:41;;;;;;;7.38;6.79;;;;;;;-0.17;66.65;99979.34;460533;113;930437;-72
2021/12/21 05:06:45;;;;;;;7.63;6.91;;;;;;;-0.17;67.14;99982.03;461759;114;922543;-73
2021/12/21 05:07:54;;;;;;;7.24;6.64;;;;;;;-0.17;67.51;99980.19;461271;114;922611;-72
2021/12/21 05:09:07;;;;;;;6.26;5.76;;;;;;;-0.13;67.60;99984.22;461328;113;922899;-72
2021/12/21 05:10:01;;;;;;;6.86;6.26;;;;;;;-0.08;67.66;99984.57;457129;114;922662;-73
2021/12/21 05:11:06;;;;;;;7.85;6.91;;;;;;;-0.02;67.68;99986.61;461264;114;922592;-73
2021/12/21 05:12:11;;;;;;;6.54;6.04;;;;;;;0.03;67.61;99990.64;460416;114;922809;-72
2021/12/21 05:13:16;;;;;;;6.21;5.76;;;;;;;0.07;67.45;99990.14;460677;114;930488;-73
2021/12/21 05:14:19;;;;;;;5.79;5.31;;;;;;;0.10;67.14;99986.31;459906;113;922806;-73
2021/12/21 05:15:23;;;;;;;6.50;6.00;;;;;;;0.09;66.97;99993.52;461844;113;922609;-72
2021/12/21 05:16:26;;;;;;;5.89;5.41;;;;;;;0.10;67.00;99989.84;462806;114;922680;-72
2021/12/21 05:17:30;;;;;;;6.80;5.87;;;;;;;0.11;66.96;99994.17;460996;114;922637;-71
2021/12/21 05:18:34;;;;;;;6.42;5.69;;;;;;;0.12;66.84;99990.50;457106;113;923108;-72
2021/12/21 05:19:38;;;;;;;6.05;5.55;;;;;;;0.12;66.64;99989.66;453623;115;931061;-73
2021/12/21 05:20:41;;;;;;;5.60;5.19;;;;;;;0.08;66.55;99986.47;454585;115;922799;-72
2021/12/21 05:21:45;;;;;;;6.08;5.58;;;;;;;0.07;66.66;99986.63;454452;115;923029;-73
2021/12/21 05:22:48;;;;;;;6.09;5.59;;;;;;;0.08;66.71;99999.03;453452;115;923070;-73
2021/12/21 05:23:52;;;;;;;5.24;4.84;;;;;;;0.08;66.70;99993.67;454408;115;922696;-71
2021/12/21 05:24:55;;;;;;;5.89;5.38;;;;;;;0.11;66.69;99998.72;455950;115;923361;-71
2021/12/21 05:25:59;;;;;;;5.50;5.09;;;;;;;0.14;66.57;99996.55;453954;115;930769;-70
2021/12/21 05:27:02;;;;;;;5.36;4.96;;;;;;;0.16;66.54;99991.03;453975;115;930577;-71
2021/12/21 05:28:07;;;;;;;5.93;5.43;;;;;;;0.20;66.36;99997.73;452952;115;922660;-72
2021/12/21 05:29:11;;;;;;;5.77;5.27;;;;;;;0.22;66.29;99993.87;454314;115;931037;-72
2021/12/21 05:30:16;;;;;;;6.13;5.61;;;;;;;0.25;66.20;100006.13;453912;115;922616;-71
2021/12/21 05:31:19;;;;;;;5.74;5.24;;;;;;;0.26;66.17;100003.30;454117;115;922942;-72
2021/12/21 05:32:23;;;;;;;5.96;5.48;;;;;;;0.25;65.96;100001.61;453888;115;923211;-72
2021/12/21 05:33:28;;;;;;;6.11;5.61;;;;;;;0.22;65.89;99996.55;451319;115;922554;-72
2021/12/21 05:34:32;;;;;;;5.78;5.34;;;;;;;0.25;65.97;99996.25;454885;115;922868;-74